Mayville, New York
Current Conditions -  °F | °C
As of 11:55 AM on Tuesday 27 Jan 2015 (Local Time) from KJHW Reporting Station
Overcast Overcast  
Wind Chill:   Ceiling: 1100
Heat Index: 16°   Visibility: 1.7mi
Dew Point: 10°   Wind: 9mph
Humidity: 79%   Direction: 360°N
Pressure: 29.89"   Gusts: NA
Location:  42.25°N, 79.5°W
Report Text: KJHW 271655Z 36008KT 1 3/4SM BKN011 BKN019 OVC026 M09/M12 A2989 RMK AO1
Loading
Personal Weather Stations






























Interactive Weather Map New forecast layout! Learn more

10-Day Weather Forecast

Advertisements
Track Severe Weather on mobile